CPA9PC RJTT-RKSI
Flight info
| Callsign | CPA9PC |
|---|---|
| Flight time | 2h 19m |
| Altitude | 32000 |
| Route | BEKLA Y18 PIGAP Y182 BIDIK Y16 SAPRA Y685 GUKDO GUKDO2H |
| Aircraft | B77L/H-SDE1E2E3FGHIJ2J3J4J5M1RWXY/LB1D1 |
Departure
| Time | 2026-05-04 20:31 |
|---|---|
| Airport | Tokyo Haneda International Airport (RJTT) |
Arrival
| Time | 2026-05-04 22:51 |
|---|---|
| Airport | Incheon International Airport (RKSI) |
| Time | Latitude | Longitude | Altitude | Speed | Heading |
|---|---|---|---|---|---|
| 2026-05-04 20:20 | 35.56043 | 139.78286 | 28 ft | 0 kts | 240° |
| 2026-05-04 20:22 | 35.56044 | 139.78290 | 28 ft | 3 kts | 240° |
| 2026-05-04 20:22 | 35.56057 | 139.78318 | 27 ft | 4 kts | 243° |
| 2026-05-04 20:23 | 35.56069 | 139.78347 | 28 ft | 4 kts | 243° |
| 2026-05-04 20:23 | 35.56079 | 139.78373 | 27 ft | 4 kts | 262° |
| 2026-05-04 20:23 | 35.56074 | 139.78399 | 26 ft | 4 kts | 324° |
| 2026-05-04 20:23 | 35.56053 | 139.78414 | 27 ft | 1 kts | 329° |
| 2026-05-04 20:24 | 35.56049 | 139.78417 | 26 ft | 0 kts | 329° |
| 2026-05-04 20:26 | 35.56066 | 139.78406 | 25 ft | 4 kts | 331° |
| 2026-05-04 20:26 | 35.56124 | 139.78365 | 28 ft | 17 kts | 329° |
| 2026-05-04 20:27 | 35.56228 | 139.78291 | 28 ft | 17 kts | 330° |
| 2026-05-04 20:27 | 35.56324 | 139.78348 | 28 ft | 17 kts | 56° |
| 2026-05-04 20:27 | 35.56383 | 139.78477 | 27 ft | 17 kts | 74° |
| 2026-05-04 20:27 | 35.56308 | 139.78600 | 27 ft | 28 kts | 147° |
| 2026-05-04 20:28 | 35.56108 | 139.78741 | 27 ft | 34 kts | 150° |
| 2026-05-04 20:28 | 35.55910 | 139.78883 | 28 ft | 32 kts | 149° |
| 2026-05-04 20:28 | 35.55719 | 139.79018 | 28 ft | 31 kts | 150° |
| 2026-05-04 20:28 | 35.55534 | 139.79148 | 28 ft | 30 kts | 150° |
| 2026-05-04 20:29 | 35.55352 | 139.79276 | 28 ft | 30 kts | 150° |
| 2026-05-04 20:29 | 35.55165 | 139.79410 | 28 ft | 35 kts | 150° |
| 2026-05-04 20:29 | 35.54955 | 139.79561 | 28 ft | 34 kts | 149° |
| 2026-05-04 20:29 | 35.54751 | 139.79705 | 28 ft | 33 kts | 150° |
| 2026-05-04 20:30 | 35.54553 | 139.79845 | 28 ft | 32 kts | 150° |
| 2026-05-04 20:30 | 35.54364 | 139.79979 | 28 ft | 31 kts | 150° |
| 2026-05-04 20:30 | 35.54200 | 139.80129 | 28 ft | 24 kts | 101° |
| 2026-05-04 20:30 | 35.54300 | 139.80262 | 29 ft | 24 kts | 352° |
| 2026-05-04 20:31 | 35.54477 | 139.80153 | 29 ft | 51 kts | 330° |
| 2026-05-04 20:31 | 35.55093 | 139.79717 | 29 ft | 151 kts | 330° |
| 2026-05-04 20:31 | 35.56168 | 139.78924 | 448 ft | 195 kts | 330° |
| 2026-05-04 20:31 | 35.57302 | 139.78111 | 1882 ft | 176 kts | 330° |
| 2026-05-04 20:32 | 35.58471 | 139.77623 | 2530 ft | 189 kts | 346° |
| 2026-05-04 20:32 | 35.59863 | 139.77326 | 2789 ft | 216 kts | 345° |
| 2026-05-04 20:32 | 35.61386 | 139.76952 | 3362 ft | 230 kts | 344° |
| 2026-05-04 20:32 | 35.62990 | 139.76541 | 4053 ft | 240 kts | 344° |
| 2026-05-04 20:33 | 35.64642 | 139.76104 | 4854 ft | 246 kts | 343° |
| 2026-05-04 20:33 | 35.65758 | 139.75802 | 5382 ft | 249 kts | 343° |
| 2026-05-04 20:33 | 35.68026 | 139.75175 | 6400 ft | 257 kts | 343° |
| 2026-05-04 20:33 | 35.69787 | 139.74680 | 7132 ft | 262 kts | 342° |
| 2026-05-04 20:34 | 35.71589 | 139.74174 | 7770 ft | 271 kts | 343° |
| 2026-05-04 20:34 | 35.72814 | 139.73824 | 8292 ft | 272 kts | 343° |
| 2026-05-04 20:34 | 35.75236 | 139.72970 | 9293 ft | 270 kts | 327° |
| 2026-05-04 20:34 | 35.76605 | 139.71427 | 9946 ft | 269 kts | 301° |
| 2026-05-04 20:35 | 35.77179 | 139.70083 | 10396 ft | 271 kts | 290° |
| 2026-05-04 20:35 | 35.77791 | 139.67809 | 10698 ft | 291 kts | 286° |
| 2026-05-04 20:35 | 35.78399 | 139.65314 | 10905 ft | 316 kts | 286° |
| 2026-05-04 20:35 | 35.79262 | 139.61727 | 11444 ft | 339 kts | 286° |
| 2026-05-04 20:36 | 35.79942 | 139.58941 | 12490 ft | 339 kts | 286° |
| 2026-05-04 20:36 | 35.80628 | 139.56161 | 13571 ft | 340 kts | 285° |
| 2026-05-04 20:36 | 35.81086 | 139.54315 | 14201 ft | 342 kts | 285° |
| 2026-05-04 20:36 | 35.81795 | 139.51464 | 15075 ft | 344 kts | 285° |
| 2026-05-04 20:37 | 35.82394 | 139.48651 | 15965 ft | 345 kts | 279° |
| 2026-05-04 20:37 | 35.82769 | 139.45732 | 16888 ft | 345 kts | 275° |
| 2026-05-04 20:37 | 35.82942 | 139.42779 | 17786 ft | 346 kts | 270° |
| 2026-05-04 20:37 | 35.82989 | 139.39802 | 18635 ft | 348 kts | 270° |
| 2026-05-04 20:38 | 35.83025 | 139.36812 | 19392 ft | 350 kts | 269° |
| 2026-05-04 20:38 | 35.83061 | 139.33807 | 20151 ft | 352 kts | 269° |
| 2026-05-04 20:38 | 35.83101 | 139.30783 | 20868 ft | 354 kts | 269° |
| 2026-05-04 20:38 | 35.83143 | 139.27738 | 21585 ft | 356 kts | 268° |
| 2026-05-04 20:39 | 35.83188 | 139.24723 | 22305 ft | 358 kts | 268° |
| 2026-05-04 20:39 | 35.83232 | 139.21641 | 23039 ft | 361 kts | 268° |
| 2026-05-04 20:39 | 35.83276 | 139.18530 | 23665 ft | 365 kts | 268° |
| 2026-05-04 20:39 | 35.83246 | 139.15394 | 24239 ft | 367 kts | 264° |
| 2026-05-04 20:40 | 35.83105 | 139.12254 | 24866 ft | 367 kts | 263° |
| 2026-05-04 20:40 | 35.82949 | 139.09115 | 25502 ft | 367 kts | 263° |
| 2026-05-04 20:40 | 35.82789 | 139.05964 | 26035 ft | 371 kts | 263° |
| 2026-05-04 20:40 | 35.82629 | 139.02774 | 26460 ft | 374 kts | 263° |
| 2026-05-04 20:41 | 35.82471 | 138.99570 | 27099 ft | 374 kts | 262° |
| 2026-05-04 20:41 | 35.82310 | 138.96373 | 27740 ft | 375 kts | 262° |
| 2026-05-04 20:41 | 35.82152 | 138.93200 | 28300 ft | 377 kts | 262° |
| 2026-05-04 20:41 | 35.81990 | 138.89969 | 28785 ft | 379 kts | 261° |
| 2026-05-04 20:42 | 35.81830 | 138.86717 | 29249 ft | 382 kts | 261° |
| 2026-05-04 20:42 | 35.81669 | 138.83447 | 29730 ft | 383 kts | 261° |
| 2026-05-04 20:42 | 35.81504 | 138.80164 | 30213 ft | 385 kts | 261° |
| 2026-05-04 20:42 | 35.81337 | 138.76865 | 30543 ft | 387 kts | 261° |
| 2026-05-04 20:43 | 35.81170 | 138.73548 | 30874 ft | 389 kts | 261° |
| 2026-05-04 20:43 | 35.81000 | 138.70216 | 31315 ft | 389 kts | 261° |
| 2026-05-04 20:43 | 35.80831 | 138.66943 | 31688 ft | 388 kts | 261° |
| 2026-05-04 20:43 | 35.80659 | 138.63621 | 31972 ft | 389 kts | 261° |
| 2026-05-04 20:44 | 35.80305 | 138.56908 | 32055 ft | 392 kts | 261° |
| 2026-05-04 20:44 | 35.79952 | 138.50257 | 32072 ft | 387 kts | 261° |
| 2026-05-04 20:45 | 35.79594 | 138.43640 | 32088 ft | 387 kts | 261° |
| 2026-05-04 20:45 | 35.79312 | 138.37057 | 32065 ft | 390 kts | 266° |
| 2026-05-04 20:46 | 35.79873 | 138.30363 | 32083 ft | 394 kts | 271° |
| 2026-05-04 20:46 | 35.81003 | 138.23712 | 32087 ft | 403 kts | 278° |
| 2026-05-04 20:47 | 35.82821 | 138.17186 | 32079 ft | 402 kts | 279° |
| 2026-05-04 20:47 | 35.84606 | 138.10723 | 32095 ft | 401 kts | 279° |
| 2026-05-04 20:48 | 35.86370 | 138.04208 | 32098 ft | 400 kts | 279° |
| 2026-05-04 20:48 | 35.88137 | 137.97692 | 32114 ft | 401 kts | 279° |
| 2026-05-04 20:49 | 35.89906 | 137.91164 | 32106 ft | 401 kts | 279° |
| 2026-05-04 20:49 | 35.91666 | 137.84646 | 32131 ft | 401 kts | 279° |
| 2026-05-04 20:50 | 35.93419 | 137.78132 | 32099 ft | 404 kts | 279° |
| 2026-05-04 20:50 | 35.95183 | 137.71560 | 32139 ft | 403 kts | 280° |
| 2026-05-04 20:51 | 35.96942 | 137.64971 | 32124 ft | 406 kts | 280° |
| 2026-05-04 20:51 | 35.98709 | 137.58343 | 32098 ft | 407 kts | 280° |
| 2026-05-04 20:52 | 36.00306 | 137.51670 | 32108 ft | 401 kts | 275° |
| 2026-05-04 20:52 | 36.01135 | 137.44956 | 32110 ft | 396 kts | 270° |
| 2026-05-04 20:53 | 36.01329 | 137.38182 | 32084 ft | 396 kts | 266° |
| 2026-05-04 20:53 | 36.01301 | 137.31374 | 32110 ft | 397 kts | 266° |
| 2026-05-04 20:54 | 36.01274 | 137.24536 | 32102 ft | 399 kts | 266° |
| 2026-05-04 20:54 | 36.01253 | 137.17716 | 32124 ft | 400 kts | 266° |
| 2026-05-04 20:55 | 36.01234 | 137.10836 | 32110 ft | 401 kts | 266° |
| 2026-05-04 20:55 | 36.01211 | 137.03952 | 32103 ft | 401 kts | 266° |
| 2026-05-04 20:56 | 36.01184 | 136.97048 | 32092 ft | 403 kts | 266° |
| 2026-05-04 20:56 | 36.01153 | 136.90120 | 32115 ft | 404 kts | 266° |
| 2026-05-04 20:57 | 36.01118 | 136.83223 | 32107 ft | 404 kts | 266° |
| 2026-05-04 20:57 | 36.01081 | 136.76273 | 32088 ft | 406 kts | 266° |
| 2026-05-04 20:58 | 36.01036 | 136.69314 | 32104 ft | 406 kts | 266° |
| 2026-05-04 20:58 | 36.00988 | 136.62351 | 32099 ft | 405 kts | 266° |
| 2026-05-04 20:59 | 36.00938 | 136.55431 | 32105 ft | 407 kts | 266° |
| 2026-05-04 20:59 | 36.00883 | 136.48433 | 32092 ft | 408 kts | 266° |
| 2026-05-04 21:00 | 36.00824 | 136.41426 | 32102 ft | 408 kts | 266° |
| 2026-05-04 21:00 | 36.00761 | 136.34409 | 32099 ft | 408 kts | 266° |
| 2026-05-04 21:01 | 36.00695 | 136.27405 | 32102 ft | 408 kts | 266° |
| 2026-05-04 21:01 | 36.00625 | 136.20442 | 32097 ft | 408 kts | 266° |
| 2026-05-04 21:02 | 36.00551 | 136.13439 | 32088 ft | 408 kts | 266° |
| 2026-05-04 21:02 | 36.00474 | 136.06430 | 32090 ft | 408 kts | 266° |
| 2026-05-04 21:03 | 36.00390 | 135.99424 | 32093 ft | 408 kts | 266° |
| 2026-05-04 21:03 | 36.00304 | 135.92445 | 32094 ft | 409 kts | 266° |
| 2026-05-04 21:04 | 36.00213 | 135.85416 | 32092 ft | 410 kts | 266° |
| 2026-05-04 21:04 | 36.00119 | 135.78377 | 32102 ft | 410 kts | 267° |
| 2026-05-04 21:05 | 36.00020 | 135.71322 | 32086 ft | 411 kts | 266° |
| 2026-05-04 21:05 | 35.99918 | 135.64305 | 32087 ft | 412 kts | 266° |
| 2026-05-04 21:06 | 35.99810 | 135.57229 | 32087 ft | 412 kts | 266° |
| 2026-05-04 21:06 | 35.99698 | 135.50152 | 32086 ft | 412 kts | 266° |
| 2026-05-04 21:07 | 35.99582 | 135.43072 | 32086 ft | 412 kts | 266° |
| 2026-05-04 21:07 | 35.99461 | 135.35992 | 32083 ft | 413 kts | 266° |
| 2026-05-04 21:08 | 35.99337 | 135.28933 | 32092 ft | 415 kts | 266° |
| 2026-05-04 21:08 | 35.99208 | 135.21804 | 32094 ft | 416 kts | 266° |
| 2026-05-04 21:09 | 35.99074 | 135.14651 | 32094 ft | 417 kts | 266° |
| 2026-05-04 21:09 | 35.98936 | 135.07494 | 32088 ft | 417 kts | 266° |
| 2026-05-04 21:10 | 35.98793 | 135.00339 | 32071 ft | 417 kts | 266° |
| 2026-05-04 21:10 | 35.98647 | 134.93234 | 32090 ft | 418 kts | 267° |
| 2026-05-04 21:11 | 35.98496 | 134.86049 | 32094 ft | 419 kts | 267° |
| 2026-05-04 21:11 | 35.98341 | 134.78848 | 32093 ft | 420 kts | 267° |
| 2026-05-04 21:12 | 35.98180 | 134.71632 | 32086 ft | 421 kts | 267° |
| 2026-05-04 21:12 | 35.98018 | 134.64459 | 32091 ft | 421 kts | 266° |
| 2026-05-04 21:13 | 35.97850 | 134.57233 | 32085 ft | 421 kts | 267° |
| 2026-05-04 21:13 | 35.97678 | 134.49994 | 32089 ft | 422 kts | 267° |
| 2026-05-04 21:14 | 35.97501 | 134.42744 | 32090 ft | 423 kts | 267° |
| 2026-05-04 21:14 | 35.97320 | 134.35476 | 32086 ft | 424 kts | 267° |
| 2026-05-04 21:15 | 35.97136 | 134.28262 | 32086 ft | 424 kts | 267° |
| 2026-05-04 21:15 | 35.96946 | 134.20989 | 32082 ft | 424 kts | 266° |
| 2026-05-04 21:16 | 35.96751 | 134.13722 | 32092 ft | 424 kts | 267° |
| 2026-05-04 21:16 | 35.96552 | 134.06422 | 32085 ft | 426 kts | 267° |
| 2026-05-04 21:17 | 35.96350 | 133.99152 | 32083 ft | 427 kts | 267° |
| 2026-05-04 21:17 | 35.96139 | 133.91815 | 32084 ft | 428 kts | 267° |
| 2026-05-04 21:18 | 35.95918 | 133.84474 | 32078 ft | 428 kts | 267° |
| 2026-05-04 21:18 | 35.95691 | 133.77135 | 32084 ft | 428 kts | 267° |
| 2026-05-04 21:19 | 35.95461 | 133.69806 | 32079 ft | 428 kts | 267° |
| 2026-05-04 21:19 | 35.95229 | 133.62487 | 32082 ft | 429 kts | 267° |
| 2026-05-04 21:20 | 35.94990 | 133.55141 | 32081 ft | 429 kts | 267° |
| 2026-05-04 21:20 | 35.94748 | 133.47803 | 32069 ft | 430 kts | 267° |
| 2026-05-04 21:21 | 35.94499 | 133.40433 | 32077 ft | 430 kts | 267° |
| 2026-05-04 21:21 | 35.94246 | 133.33050 | 32077 ft | 432 kts | 267° |
| 2026-05-04 21:22 | 35.93988 | 133.25662 | 32081 ft | 433 kts | 267° |
| 2026-05-04 21:22 | 35.93724 | 133.18233 | 32080 ft | 434 kts | 267° |
| 2026-05-04 21:23 | 35.93457 | 133.10822 | 32069 ft | 434 kts | 266° |
| 2026-05-04 21:23 | 35.93183 | 133.03363 | 32076 ft | 434 kts | 266° |
| 2026-05-04 21:24 | 35.92906 | 132.95958 | 32073 ft | 434 kts | 267° |
| 2026-05-04 21:24 | 35.92625 | 132.88575 | 32076 ft | 435 kts | 266° |
| 2026-05-04 21:25 | 35.92339 | 132.81154 | 32076 ft | 435 kts | 266° |
| 2026-05-04 21:25 | 35.92047 | 132.73702 | 32058 ft | 435 kts | 266° |
| 2026-05-04 21:26 | 35.91751 | 132.66260 | 32066 ft | 434 kts | 266° |
| 2026-05-04 21:26 | 35.91451 | 132.58882 | 32078 ft | 434 kts | 266° |
| 2026-05-04 21:27 | 35.91145 | 132.51428 | 32070 ft | 435 kts | 266° |
| 2026-05-04 21:27 | 35.90835 | 132.43998 | 32065 ft | 435 kts | 266° |
| 2026-05-04 21:28 | 35.90519 | 132.36521 | 32055 ft | 436 kts | 266° |
| 2026-05-04 21:28 | 35.90200 | 132.29086 | 32067 ft | 437 kts | 266° |
| 2026-05-04 21:29 | 35.89874 | 132.21610 | 32068 ft | 438 kts | 266° |
| 2026-05-04 21:29 | 35.89547 | 132.14221 | 32065 ft | 439 kts | 266° |
| 2026-05-04 21:30 | 35.89211 | 132.06707 | 32065 ft | 439 kts | 266° |
| 2026-05-04 21:30 | 35.88868 | 131.99177 | 32065 ft | 439 kts | 266° |
| 2026-05-04 21:31 | 35.88350 | 131.87947 | 32066 ft | 440 kts | 266° |
| 2026-05-04 21:32 | 35.87995 | 131.80413 | 32062 ft | 440 kts | 266° |
| 2026-05-04 21:32 | 35.87636 | 131.72877 | 32062 ft | 441 kts | 266° |
| 2026-05-04 21:33 | 35.87272 | 131.65334 | 32062 ft | 441 kts | 266° |
| 2026-05-04 21:33 | 35.86903 | 131.57775 | 32036 ft | 441 kts | 266° |
| 2026-05-04 21:34 | 35.86533 | 131.50304 | 32058 ft | 442 kts | 266° |
| 2026-05-04 21:34 | 35.86154 | 131.42739 | 32054 ft | 442 kts | 266° |
| 2026-05-04 21:35 | 35.85770 | 131.35172 | 32058 ft | 442 kts | 266° |
| 2026-05-04 21:35 | 35.85380 | 131.27596 | 32056 ft | 443 kts | 266° |
| 2026-05-04 21:36 | 35.84986 | 131.20019 | 32052 ft | 443 kts | 266° |
| 2026-05-04 21:36 | 35.84590 | 131.12496 | 32058 ft | 443 kts | 266° |
| 2026-05-04 21:37 | 35.84186 | 131.04913 | 32055 ft | 443 kts | 266° |
| 2026-05-04 21:37 | 35.83777 | 130.97327 | 32054 ft | 444 kts | 265° |
| 2026-05-04 21:38 | 35.83363 | 130.89740 | 32056 ft | 444 kts | 266° |
| 2026-05-04 21:38 | 35.82948 | 130.82198 | 32053 ft | 444 kts | 265° |
| 2026-05-04 21:39 | 35.82579 | 130.74600 | 32045 ft | 444 kts | 269° |
| 2026-05-04 21:39 | 35.83025 | 130.67004 | 32057 ft | 446 kts | 277° |
| 2026-05-04 21:40 | 35.84024 | 130.59470 | 32057 ft | 446 kts | 277° |
| 2026-05-04 21:40 | 35.85001 | 130.51923 | 32053 ft | 446 kts | 277° |
| 2026-05-04 21:41 | 35.85951 | 130.44425 | 32056 ft | 446 kts | 277° |
| 2026-05-04 21:41 | 35.86900 | 130.36864 | 32050 ft | 446 kts | 277° |
| 2026-05-04 21:42 | 35.87844 | 130.29298 | 32053 ft | 446 kts | 277° |
| 2026-05-04 21:42 | 35.88783 | 130.21736 | 32056 ft | 447 kts | 277° |
| 2026-05-04 21:43 | 35.89713 | 130.14203 | 32047 ft | 447 kts | 277° |
| 2026-05-04 21:43 | 35.90645 | 130.06621 | 32044 ft | 447 kts | 277° |
| 2026-05-04 21:44 | 35.91571 | 129.99047 | 32053 ft | 447 kts | 277° |
| 2026-05-04 21:44 | 35.92486 | 129.91516 | 32048 ft | 447 kts | 277° |
| 2026-05-04 21:45 | 35.93404 | 129.83931 | 32049 ft | 447 kts | 277° |
| 2026-05-04 21:45 | 35.94312 | 129.76337 | 32050 ft | 447 kts | 277° |
| 2026-05-04 21:46 | 35.95211 | 129.68739 | 32045 ft | 448 kts | 277° |
| 2026-05-04 21:46 | 35.96107 | 129.61130 | 32046 ft | 448 kts | 277° |
| 2026-05-04 21:47 | 35.97006 | 129.53572 | 32053 ft | 449 kts | 278° |
| 2026-05-04 21:47 | 35.98956 | 129.46240 | 32060 ft | 452 kts | 292° |
| 2026-05-04 21:48 | 36.02163 | 129.39522 | 32062 ft | 457 kts | 302° |
| 2026-05-04 21:48 | 36.05896 | 129.33167 | 32058 ft | 457 kts | 303° |
| 2026-05-04 21:49 | 36.09628 | 129.26792 | 32059 ft | 458 kts | 302° |
| 2026-05-04 21:49 | 36.13327 | 129.20383 | 32062 ft | 458 kts | 302° |
| 2026-05-04 21:50 | 36.16986 | 129.14001 | 32055 ft | 458 kts | 302° |
| 2026-05-04 21:50 | 36.20667 | 129.07567 | 32068 ft | 458 kts | 302° |
| 2026-05-04 21:51 | 36.24347 | 129.01125 | 32061 ft | 458 kts | 302° |
| 2026-05-04 21:51 | 36.28021 | 128.94684 | 32065 ft | 458 kts | 302° |
| 2026-05-04 21:52 | 36.31668 | 128.88279 | 32075 ft | 458 kts | 302° |
| 2026-05-04 21:52 | 36.35339 | 128.81821 | 32060 ft | 458 kts | 302° |
| 2026-05-04 21:53 | 36.39013 | 128.75360 | 32067 ft | 458 kts | 302° |
| 2026-05-04 21:53 | 36.42684 | 128.68893 | 32065 ft | 458 kts | 302° |
| 2026-05-04 21:54 | 36.46352 | 128.62417 | 32070 ft | 459 kts | 302° |
| 2026-05-04 21:54 | 36.49992 | 128.55977 | 32152 ft | 456 kts | 302° |
| 2026-05-04 21:55 | 36.53650 | 128.49492 | 32083 ft | 459 kts | 302° |
| 2026-05-04 21:55 | 36.57314 | 128.42983 | 32071 ft | 459 kts | 302° |
| 2026-05-04 21:56 | 36.60974 | 128.36471 | 32068 ft | 459 kts | 302° |
| 2026-05-04 21:56 | 36.64619 | 128.29996 | 32067 ft | 460 kts | 303° |
| 2026-05-04 21:57 | 36.68335 | 128.23517 | 32068 ft | 460 kts | 303° |
| 2026-05-04 21:57 | 36.72047 | 128.17027 | 32075 ft | 460 kts | 303° |
| 2026-05-04 21:58 | 36.75721 | 128.10580 | 31995 ft | 447 kts | 303° |
| 2026-05-04 21:58 | 36.79241 | 128.04396 | 31852 ft | 428 kts | 303° |
| 2026-05-04 21:59 | 36.82585 | 127.98510 | 31559 ft | 410 kts | 303° |
| 2026-05-04 21:59 | 36.84227 | 127.95615 | 31118 ft | 408 kts | 303° |
| 2026-05-04 21:59 | 36.85854 | 127.92729 | 30621 ft | 406 kts | 303° |
| 2026-05-04 21:59 | 36.87507 | 127.89777 | 29749 ft | 428 kts | 303° |
| 2026-05-04 22:00 | 36.89251 | 127.86656 | 29445 ft | 446 kts | 303° |
| 2026-05-04 22:00 | 36.91057 | 127.83428 | 29269 ft | 461 kts | 303° |
| 2026-05-04 22:00 | 36.92914 | 127.80110 | 29165 ft | 469 kts | 304° |
| 2026-05-04 22:01 | 36.96694 | 127.73405 | 29171 ft | 472 kts | 304° |
| 2026-05-04 22:01 | 37.00458 | 127.66745 | 29164 ft | 472 kts | 304° |
| 2026-05-04 22:02 | 37.04229 | 127.60020 | 29165 ft | 473 kts | 303° |
| 2026-05-04 22:02 | 37.07983 | 127.53255 | 29164 ft | 473 kts | 303° |
| 2026-05-04 22:03 | 37.11710 | 127.46532 | 29171 ft | 473 kts | 304° |
| 2026-05-04 22:03 | 37.15922 | 127.40287 | 29023 ft | 472 kts | 324° |
| 2026-05-04 22:03 | 37.18849 | 127.38495 | 29186 ft | 474 kts | 340° |
| 2026-05-04 22:04 | 37.22130 | 127.37817 | 29180 ft | 483 kts | 355° |
| 2026-05-04 22:04 | 37.28838 | 127.37824 | 29145 ft | 476 kts | 356° |
| 2026-05-04 22:04 | 37.32115 | 127.38153 | 29139 ft | 473 kts | 7° |
| 2026-05-04 22:05 | 37.35239 | 127.39423 | 29152 ft | 472 kts | 22° |
| 2026-05-04 22:05 | 37.38013 | 127.41558 | 29297 ft | 477 kts | 26° |
| 2026-05-04 22:05 | 37.41081 | 127.43028 | 29226 ft | 470 kts | 4° |
| 2026-05-04 22:05 | 37.44285 | 127.42934 | 28736 ft | 458 kts | 342° |
| 2026-05-04 22:06 | 37.47135 | 127.41319 | 27881 ft | 448 kts | 319° |
| 2026-05-04 22:06 | 37.49185 | 127.38435 | 26885 ft | 443 kts | 295° |
| 2026-05-04 22:06 | 37.50093 | 127.34777 | 25906 ft | 440 kts | 271° |
| 2026-05-04 22:06 | 37.49699 | 127.31000 | 25035 ft | 438 kts | 246° |
| 2026-05-04 22:07 | 37.48086 | 127.27804 | 24270 ft | 434 kts | 223° |
| 2026-05-04 22:07 | 37.45897 | 127.25207 | 23350 ft | 431 kts | 226° |
| 2026-05-04 22:07 | 37.44344 | 127.22086 | 22367 ft | 427 kts | 248° |
| 2026-05-04 22:07 | 37.43790 | 127.18455 | 21689 ft | 424 kts | 266° |
| 2026-05-04 22:08 | 37.43848 | 127.14791 | 21278 ft | 413 kts | 268° |
| 2026-05-04 22:08 | 37.43869 | 127.11201 | 20632 ft | 413 kts | 270° |
| 2026-05-04 22:08 | 37.43868 | 127.07570 | 20143 ft | 417 kts | 267° |
| 2026-05-04 22:08 | 37.43484 | 127.03960 | 19877 ft | 416 kts | 257° |
| 2026-05-04 22:09 | 37.42778 | 127.00450 | 19731 ft | 412 kts | 255° |
| 2026-05-04 22:09 | 37.42085 | 126.96965 | 19532 ft | 410 kts | 257° |
| 2026-05-04 22:09 | 37.41460 | 126.93472 | 19286 ft | 409 kts | 257° |
| 2026-05-04 22:09 | 37.40707 | 126.90083 | 18981 ft | 408 kts | 251° |
| 2026-05-04 22:10 | 37.39686 | 126.86751 | 18709 ft | 409 kts | 248° |
| 2026-05-04 22:10 | 37.38576 | 126.83463 | 18479 ft | 408 kts | 247° |
| 2026-05-04 22:10 | 37.37465 | 126.80199 | 18270 ft | 406 kts | 247° |
| 2026-05-04 22:10 | 37.36375 | 126.76933 | 18044 ft | 404 kts | 247° |
| 2026-05-04 22:11 | 37.35307 | 126.73659 | 17768 ft | 405 kts | 248° |
| 2026-05-04 22:11 | 37.34255 | 126.70387 | 17555 ft | 404 kts | 248° |
| 2026-05-04 22:11 | 37.33214 | 126.67121 | 17381 ft | 401 kts | 248° |
| 2026-05-04 22:11 | 37.32197 | 126.63921 | 17215 ft | 399 kts | 248° |
| 2026-05-04 22:12 | 37.31169 | 126.60689 | 16986 ft | 398 kts | 248° |
| 2026-05-04 22:12 | 37.30144 | 126.57470 | 16780 ft | 397 kts | 248° |
| 2026-05-04 22:12 | 37.29119 | 126.54255 | 16603 ft | 396 kts | 248° |
| 2026-05-04 22:12 | 37.28096 | 126.51048 | 16419 ft | 394 kts | 248° |
| 2026-05-04 22:13 | 37.27076 | 126.47862 | 16224 ft | 393 kts | 248° |
| 2026-05-04 22:13 | 37.26057 | 126.44678 | 15981 ft | 394 kts | 248° |
| 2026-05-04 22:13 | 37.25035 | 126.41490 | 15878 ft | 391 kts | 248° |
| 2026-05-04 22:13 | 37.24025 | 126.38346 | 15850 ft | 386 kts | 248° |
| 2026-05-04 22:14 | 37.23073 | 126.35235 | 15791 ft | 378 kts | 253° |
| 2026-05-04 22:14 | 37.22755 | 126.32036 | 15737 ft | 372 kts | 273° |
| 2026-05-04 22:14 | 37.23018 | 126.28851 | 15703 ft | 366 kts | 275° |
| 2026-05-04 22:14 | 37.23225 | 126.25679 | 15682 ft | 363 kts | 273° |
| 2026-05-04 22:15 | 37.23390 | 126.22559 | 15651 ft | 357 kts | 275° |
| 2026-05-04 22:15 | 37.23998 | 126.19607 | 15566 ft | 349 kts | 297° |
| 2026-05-04 22:15 | 37.25405 | 126.17192 | 15471 ft | 339 kts | 316° |
| 2026-05-04 22:15 | 37.27227 | 126.15400 | 15337 ft | 328 kts | 324° |
| 2026-05-04 22:16 | 37.29090 | 126.13783 | 15014 ft | 323 kts | 324° |
| 2026-05-04 22:16 | 37.30931 | 126.12187 | 14780 ft | 320 kts | 324° |
| 2026-05-04 22:16 | 37.32748 | 126.10583 | 14698 ft | 316 kts | 323° |
| 2026-05-04 22:16 | 37.34523 | 126.09004 | 14563 ft | 308 kts | 323° |
| 2026-05-04 22:17 | 37.36208 | 126.07498 | 14475 ft | 295 kts | 323° |
| 2026-05-04 22:17 | 37.37844 | 126.06034 | 14402 ft | 283 kts | 323° |
| 2026-05-04 22:17 | 37.39414 | 126.04627 | 14245 ft | 272 kts | 323° |
| 2026-05-04 22:17 | 37.40929 | 126.03268 | 14043 ft | 264 kts | 323° |
| 2026-05-04 22:18 | 37.42410 | 126.01942 | 13722 ft | 259 kts | 325° |
| 2026-05-04 22:18 | 37.44054 | 126.01082 | 13181 ft | 260 kts | 355° |
| 2026-05-04 22:18 | 37.45829 | 126.01415 | 12698 ft | 262 kts | 26° |
| 2026-05-04 22:18 | 37.47268 | 126.02783 | 12274 ft | 260 kts | 50° |
| 2026-05-04 22:19 | 37.48328 | 126.04587 | 11812 ft | 260 kts | 54° |
| 2026-05-04 22:19 | 37.49338 | 126.06461 | 11420 ft | 257 kts | 63° |
| 2026-05-04 22:19 | 37.49747 | 126.08624 | 10925 ft | 257 kts | 96° |
| 2026-05-04 22:19 | 37.49229 | 126.10733 | 10493 ft | 252 kts | 124° |
| 2026-05-04 22:20 | 37.48086 | 126.12365 | 10088 ft | 251 kts | 143° |
| 2026-05-04 22:20 | 37.46665 | 126.13683 | 10011 ft | 254 kts | 147° |
| 2026-05-04 22:20 | 37.45211 | 126.14945 | 10010 ft | 254 kts | 148° |
| 2026-05-04 22:20 | 37.43749 | 126.16211 | 10005 ft | 255 kts | 147° |
| 2026-05-04 22:21 | 37.42289 | 126.17494 | 10011 ft | 256 kts | 147° |
| 2026-05-04 22:21 | 37.40850 | 126.18769 | 10014 ft | 257 kts | 147° |
| 2026-05-04 22:21 | 37.39391 | 126.20066 | 10014 ft | 258 kts | 147° |
| 2026-05-04 22:21 | 37.37927 | 126.21369 | 10016 ft | 258 kts | 147° |
| 2026-05-04 22:22 | 37.36643 | 126.22918 | 9967 ft | 259 kts | 121° |
| 2026-05-04 22:22 | 37.36153 | 126.25069 | 9955 ft | 260 kts | 89° |
| 2026-05-04 22:22 | 37.36585 | 126.27248 | 9944 ft | 258 kts | 60° |
| 2026-05-04 22:22 | 37.37573 | 126.29102 | 9915 ft | 255 kts | 53° |
| 2026-05-04 22:23 | 37.38612 | 126.30907 | 9909 ft | 253 kts | 51° |
| 2026-05-04 22:23 | 37.39912 | 126.32350 | 9764 ft | 251 kts | 21° |
| 2026-05-04 22:23 | 37.41573 | 126.32716 | 9668 ft | 246 kts | 350° |
| 2026-05-04 22:23 | 37.43184 | 126.32094 | 9631 ft | 241 kts | 328° |
| 2026-05-04 22:24 | 37.44588 | 126.30956 | 9595 ft | 240 kts | 322° |
| 2026-05-04 22:24 | 37.45946 | 126.29726 | 9581 ft | 240 kts | 321° |
| 2026-05-04 22:24 | 37.47297 | 126.28474 | 9528 ft | 242 kts | 322° |
| 2026-05-04 22:24 | 37.48670 | 126.27222 | 9285 ft | 243 kts | 322° |
| 2026-05-04 22:25 | 37.50047 | 126.25979 | 8925 ft | 245 kts | 322° |
| 2026-05-04 22:25 | 37.51454 | 126.24772 | 8491 ft | 245 kts | 323° |
| 2026-05-04 22:25 | 37.52875 | 126.23583 | 8066 ft | 245 kts | 324° |
| 2026-05-04 22:25 | 37.54278 | 126.22420 | 7638 ft | 245 kts | 324° |
| 2026-05-04 22:26 | 37.55702 | 126.21247 | 7245 ft | 245 kts | 324° |
| 2026-05-04 22:26 | 37.57142 | 126.20101 | 6842 ft | 245 kts | 324° |
| 2026-05-04 22:26 | 37.58572 | 126.18949 | 6428 ft | 245 kts | 324° |
| 2026-05-04 22:26 | 37.60004 | 126.17793 | 6007 ft | 245 kts | 324° |
| 2026-05-04 22:27 | 37.61441 | 126.16630 | 5562 ft | 245 kts | 324° |
| 2026-05-04 22:27 | 37.62875 | 126.15465 | 5143 ft | 245 kts | 324° |
| 2026-05-04 22:27 | 37.64293 | 126.14310 | 4726 ft | 246 kts | 324° |
| 2026-05-04 22:27 | 37.65718 | 126.13152 | 4399 ft | 242 kts | 324° |
| 2026-05-04 22:28 | 37.67136 | 126.12005 | 3941 ft | 243 kts | 324° |
| 2026-05-04 22:28 | 37.68561 | 126.10858 | 3493 ft | 244 kts | 324° |
| 2026-05-04 22:28 | 37.69992 | 126.09710 | 3023 ft | 240 kts | 324° |
| 2026-05-04 22:28 | 37.71389 | 126.08603 | 2560 ft | 234 kts | 324° |
| 2026-05-04 22:29 | 37.72810 | 126.07663 | 2072 ft | 231 kts | 340° |
| 2026-05-04 22:29 | 37.74386 | 126.07672 | 1701 ft | 227 kts | 17° |
| 2026-05-04 22:29 | 37.75673 | 126.08803 | 1612 ft | 232 kts | 52° |
| 2026-05-04 22:29 | 37.76282 | 126.10637 | 1590 ft | 230 kts | 86° |
| 2026-05-04 22:30 | 37.76023 | 126.12562 | 1588 ft | 221 kts | 121° |
| 2026-05-04 22:30 | 37.75081 | 126.14037 | 1616 ft | 216 kts | 140° |
| 2026-05-04 22:30 | 37.73956 | 126.15301 | 1609 ft | 216 kts | 143° |
| 2026-05-04 22:30 | 37.72835 | 126.16515 | 1583 ft | 208 kts | 143° |
| 2026-05-04 22:31 | 37.71748 | 126.17692 | 1600 ft | 206 kts | 143° |
| 2026-05-04 22:31 | 37.70665 | 126.18867 | 1599 ft | 204 kts | 143° |
| 2026-05-04 22:31 | 37.69594 | 126.20033 | 1592 ft | 203 kts | 143° |
| 2026-05-04 22:31 | 37.68540 | 126.21185 | 1601 ft | 203 kts | 143° |
| 2026-05-04 22:32 | 37.67470 | 126.22360 | 1599 ft | 204 kts | 143° |
| 2026-05-04 22:32 | 37.66388 | 126.23552 | 1616 ft | 209 kts | 143° |
| 2026-05-04 22:32 | 37.65298 | 126.24754 | 1598 ft | 206 kts | 143° |
| 2026-05-04 22:32 | 37.64231 | 126.25932 | 1582 ft | 202 kts | 142° |
| 2026-05-04 22:33 | 37.63169 | 126.27103 | 1625 ft | 205 kts | 142° |
| 2026-05-04 22:33 | 37.62078 | 126.28303 | 1613 ft | 208 kts | 142° |
| 2026-05-04 22:33 | 37.60973 | 126.29390 | 1588 ft | 197 kts | 148° |
| 2026-05-04 22:33 | 37.59862 | 126.30369 | 1589 ft | 193 kts | 149° |
| 2026-05-04 22:34 | 37.58759 | 126.31340 | 1600 ft | 193 kts | 149° |
| 2026-05-04 22:34 | 37.57658 | 126.32314 | 1593 ft | 194 kts | 148° |
| 2026-05-04 22:34 | 37.56569 | 126.33281 | 1611 ft | 195 kts | 148° |
| 2026-05-04 22:34 | 37.55458 | 126.34269 | 1609 ft | 196 kts | 149° |
| 2026-05-04 22:35 | 37.54349 | 126.35257 | 1593 ft | 195 kts | 148° |
| 2026-05-04 22:35 | 37.53252 | 126.36235 | 1581 ft | 190 kts | 148° |
| 2026-05-04 22:35 | 37.52215 | 126.37162 | 1588 ft | 173 kts | 149° |
| 2026-05-04 22:35 | 37.51283 | 126.37990 | 1572 ft | 156 kts | 150° |
| 2026-05-04 22:36 | 37.50393 | 126.38786 | 1044 ft | 159 kts | 147° |
| 2026-05-04 22:36 | 37.49508 | 126.39604 | 1213 ft | 172 kts | 147° |
| 2026-05-04 22:36 | 37.48337 | 126.40614 | 1062 ft | 216 kts | 147° |
| 2026-05-04 22:36 | 37.47157 | 126.41671 | 1039 ft | 203 kts | 147° |
| 2026-05-04 22:37 | 37.45965 | 126.42732 | 975 ft | 219 kts | 145° |
| 2026-05-04 22:37 | 37.44675 | 126.43885 | 975 ft | 234 kts | 145° |
| 2026-05-04 22:37 | 37.43344 | 126.45077 | 973 ft | 234 kts | 146° |
| 2026-05-04 22:37 | 37.42025 | 126.46291 | 983 ft | 238 kts | 143° |
| 2026-05-04 22:38 | 37.40862 | 126.47797 | 1086 ft | 241 kts | 129° |
| 2026-05-04 22:38 | 37.39587 | 126.49116 | 1055 ft | 243 kts | 162° |
| 2026-05-04 22:38 | 37.37958 | 126.49252 | 1028 ft | 233 kts | 194° |
| 2026-05-04 22:38 | 37.36544 | 126.48302 | 1028 ft | 235 kts | 225° |
| 2026-05-04 22:39 | 37.35640 | 126.46638 | 1032 ft | 235 kts | 242° |
| 2026-05-04 22:39 | 37.34958 | 126.44779 | 1022 ft | 232 kts | 250° |
| 2026-05-04 22:39 | 37.34866 | 126.42788 | 1029 ft | 233 kts | 284° |
| 2026-05-04 22:39 | 37.35274 | 126.40818 | 1022 ft | 234 kts | 269° |
| 2026-05-04 22:40 | 37.34780 | 126.38904 | 1036 ft | 236 kts | 230° |
| 2026-05-04 22:40 | 37.33654 | 126.37429 | 1029 ft | 234 kts | 230° |
| 2026-05-04 22:40 | 37.32740 | 126.35793 | 1034 ft | 238 kts | 238° |
| 2026-05-04 22:40 | 37.31935 | 126.33983 | 1043 ft | 235 kts | 241° |
| 2026-05-04 22:41 | 37.31037 | 126.32372 | 1146 ft | 228 kts | 223° |
| 2026-05-04 22:41 | 37.29790 | 126.31077 | 1348 ft | 232 kts | 219° |
| 2026-05-04 22:41 | 37.28566 | 126.29793 | 1471 ft | 232 kts | 227° |
| 2026-05-04 22:41 | 37.27892 | 126.27983 | 1515 ft | 235 kts | 264° |
| 2026-05-04 22:42 | 37.28143 | 126.25959 | 1576 ft | 239 kts | 291° |
| 2026-05-04 22:42 | 37.29089 | 126.24222 | 1601 ft | 249 kts | 315° |
| 2026-05-04 22:42 | 37.30612 | 126.23113 | 1610 ft | 260 kts | 341° |
| 2026-05-04 22:42 | 37.32421 | 126.22941 | 1598 ft | 264 kts | 5° |
| 2026-05-04 22:43 | 37.34251 | 126.23339 | 1610 ft | 268 kts | 10° |
| 2026-05-04 22:43 | 37.36068 | 126.23843 | 1592 ft | 268 kts | 11° |
| 2026-05-04 22:43 | 37.37890 | 126.24356 | 1590 ft | 268 kts | 10° |
| 2026-05-04 22:43 | 37.39706 | 126.24852 | 1599 ft | 267 kts | 10° |
| 2026-05-04 22:44 | 37.41497 | 126.25331 | 1594 ft | 266 kts | 9° |
| 2026-05-04 22:44 | 37.43301 | 126.25803 | 1590 ft | 264 kts | 9° |
| 2026-05-04 22:44 | 37.45083 | 126.26264 | 1585 ft | 256 kts | 9° |
| 2026-05-04 22:44 | 37.46769 | 126.26696 | 1576 ft | 240 kts | 9° |
| 2026-05-04 22:45 | 37.48374 | 126.27103 | 1583 ft | 232 kts | 9° |
| 2026-05-04 22:45 | 37.51393 | 126.27865 | 1618 ft | 213 kts | 9° |
| 2026-05-04 22:45 | 37.52837 | 126.28228 | 1598 ft | 211 kts | 9° |
| 2026-05-04 22:46 | 37.54259 | 126.28586 | 1597 ft | 209 kts | 8° |
| 2026-05-04 22:46 | 37.55667 | 126.28984 | 1607 ft | 208 kts | 18° |
| 2026-05-04 22:46 | 37.56854 | 126.30013 | 1611 ft | 209 kts | 46° |
| 2026-05-04 22:46 | 37.57640 | 126.31537 | 1590 ft | 207 kts | 68° |
| 2026-05-04 22:47 | 37.57982 | 126.33268 | 1595 ft | 198 kts | 83° |
| 2026-05-04 22:47 | 37.57747 | 126.34800 | 1559 ft | 166 kts | 134° |
| 2026-05-04 22:47 | 37.56950 | 126.35725 | 1618 ft | 151 kts | 143° |
| 2026-05-04 22:47 | 37.56161 | 126.36587 | 1595 ft | 151 kts | 145° |
| 2026-05-04 22:48 | 37.55619 | 126.37139 | 1610 ft | 151 kts | 147° |
| 2026-05-04 22:48 | 37.54777 | 126.37945 | 1609 ft | 153 kts | 148° |
| 2026-05-04 22:48 | 37.53942 | 126.38794 | 1556 ft | 157 kts | 146° |
| 2026-05-04 22:48 | 37.52823 | 126.39913 | 1136 ft | 147 kts | 146° |
| 2026-05-04 22:49 | 37.52022 | 126.40675 | 913 ft | 143 kts | 145° |
| 2026-05-04 22:49 | 37.51252 | 126.41458 | 742 ft | 142 kts | 144° |
| 2026-05-04 22:49 | 37.50459 | 126.42175 | 569 ft | 140 kts | 146° |
| 2026-05-04 22:49 | 37.49921 | 126.42656 | 422 ft | 140 kts | 144° |
| 2026-05-04 22:50 | 37.49128 | 126.43364 | 250 ft | 139 kts | 144° |
| 2026-05-04 22:50 | 37.48348 | 126.44055 | 85 ft | 139 kts | 145° |
| 2026-05-04 22:50 | 37.47587 | 126.44736 | 27 ft | 125 kts | 145° |
| 2026-05-04 22:50 | 37.46969 | 126.45287 | 29 ft | 91 kts | 144° |
| 2026-05-04 22:51 | 37.46551 | 126.45660 | 27 ft | 58 kts | 144° |
| 2026-05-04 22:51 | 37.46345 | 126.45962 | 28 ft | 26 kts | 115° |
| 2026-05-04 22:51 | 37.46343 | 126.46103 | 27 ft | 0 kts | 24° |
| 2026-05-04 22:51 | 37.46349 | 126.46106 | 27 ft | 2 kts | 19° |
| 2026-05-04 22:52 | 37.46370 | 126.46108 | 27 ft | 10 kts | 4° |
| 2026-05-04 22:52 | 37.46467 | 126.46214 | 27 ft | 22 kts | 65° |
| 2026-05-04 22:52 | 37.46539 | 126.46381 | 27 ft | 22 kts | 60° |
| 2026-05-04 22:52 | 37.46618 | 126.46542 | 27 ft | 22 kts | 52° |
| 2026-05-04 22:53 | 37.46731 | 126.46542 | 27 ft | 3 kts | 326° |